Strategic Vision — 9V3944 — position and weather

sailwx.info

Track history (hours):
 
Tides and Currents Weather Stations Pressure Air Temp Water Temp Dewpoint Dewpoint Depression Visibility Wind Speed Wind Dir Waves Ship Positions

Strategic Vision

Last reported at 2017-Oct-19 05:53 UTC. Time now 2017-Nov-19 06:34 UTC.
Position N 48°09' W 006°27'.
Warning: this ship's position is 31 days out of date.

Length 186 m; draft 10.5 m.

Type: Cargo ship. MMSI: 565671000.

Date/timePositionNaut miles runAvg speedWind from/ knotsBaromVisibWave heightAir tempDewpointWater temp
2017-Oct-19 05:53N 48°09' W 006°27'10510.4
2017-Oct-18 19:46N 49°23' W 004°34'312.9
2017-Oct-18 19:31N 49°25' W 004°30'612.6
2017-Oct-18 19:00N 49°28' W 004°21'712.2
2017-Oct-18 18:23N 49°32' W 004°11'511.8
2017-Oct-18 18:00N 49°35' W 004°06'711.4
2017-Oct-18 17:25N 49°39' W 003°58'510.7
2017-Oct-18 16:58N 49°41' W 003°51'510.8
2017-Oct-18 16:31N 49°43' W 003°44'611.3
2017-Oct-18 16:00N 49°45' W 003°36'611.5
2017-Oct-18 15:31N 49°48' W 003°28'612.0
2017-Oct-18 15:01N 49°51' W 003°20'1313.0
2017-Oct-18 14:01N 49°56' W 003°02'814.3
2017-Oct-18 13:25N 49°59' W 002°49'714.9
2017-Oct-18 12:59N 50°01' W 002°40'7812.5
2017-Oct-18 06:43N 50°22' W 000°42'810.4
2017-Oct-18 05:55N 50°24' W 000°30'511.4
2017-Oct-18 05:30N 50°26' W 000°23'612.1
2017-Oct-18 05:00N 50°28' W 000°13'612.9
2017-Oct-18 04:31N 50°29' W 000°04'713.5
2017-Oct-18 04:00N 50°31' E 000°06'714.0
2017-Oct-18 03:30N 50°33' E 000°17'714.3
2017-Oct-18 03:00N 50°35' E 000°28'713.9
2017-Oct-18 02:30N 50°37' E 000°38'713.8
2017-Oct-18 02:00N 50°41' E 000°47'713.4
2017-Oct-18 01:30N 50°45' E 000°55'612.7
2017-Oct-18 01:00N 50°49' E 001°03'712.2
2017-Oct-18 00:27N 50°54' E 001°11'511.4
2017-Oct-18 00:00N 50°58' E 001°16'510.5
2017-Oct-17 23:30N 51°01' E 001°22'510.1
2017-Oct-17 23:00N 51°04' E 001°29'5 9.5
2017-Oct-17 22:30N 51°07' E 001°35'5 9.9
2017-Oct-17 22:00N 51°10' E 001°41'510.6
2017-Oct-17 21:30N 51°14' E 001°47'612.0
2017-Oct-17 21:00N 51°20' E 001°50'612.8
2017-Oct-17 20:30N 51°26' E 001°55'713.9
2017-Oct-17 20:00N 51°31' E 002°02'714.3
2017-Oct-17 19:30N 51°36' E 002°09'714.6
2017-Oct-17 19:00N 51°42' E 002°17'1414.3
2017-Oct-17 18:00N 51°53' E 002°31'1413.3
2017-Oct-17 16:56N 52°07' E 002°36'612.3
2017-Oct-17 16:28N 52°13' E 002°39'711.9
2017-Oct-17 15:55N 52°19' E 002°44'42910.4
2017-Oct-15 22:45N 57°55' E 010°29'311.6
2017-Oct-15 22:30N 57°53' E 010°33'611.7
2017-Oct-15 21:59N 57°50' E 010°42'611.8
2017-Oct-15 21:28N 57°46' E 010°51'510.7
2017-Oct-15 21:00N 57°42' E 010°58'612.1
2017-Oct-15 20:30N 57°38' E 011°06'612.7
2017-Oct-15 20:00N 57°34' E 011°15'612.9
2017-Oct-15 19:30N 57°30' E 011°24'612.6
2017-Oct-15 19:00N 57°24' E 011°29'612.8
2017-Oct-15 18:30N 57°18' E 011°32'712.5
2017-Oct-15 17:58N 57°12' E 011°36'612.8
2017-Oct-15 17:28N 57°06' E 011°41'612.5
2017-Oct-15 17:00N 57°00' E 011°44'612.3
2017-Oct-15 16:30N 56°55' E 011°49'10511.1
2017-Oct-15 07:06N 55°13' E 011°06'1 8.2
2017-Oct-15 07:00N 55°12' E 011°06'510.1
2017-Oct-15 06:31N 55°09' E 010°60'611.8
2017-Oct-15 06:01N 55°03' E 010°60'611.2
2017-Oct-15 05:30N 54°58' E 010°56'611.7
2017-Oct-15 05:00N 54°53' E 010°50'611.7
2017-Oct-15 04:30N 54°47' E 010°49'611.1
2017-Oct-15 04:00N 54°42' E 010°47'510.9
2017-Oct-15 03:31N 54°38' E 010°54'611.6
2017-Oct-15 03:00N 54°36' E 011°04'510.9
2017-Oct-15 02:30N 54°35' E 011°13'611.6
2017-Oct-15 02:01N 54°33' E 011°22'611.8
2017-Oct-15 01:30N 54°30' E 011°31'612.1
2017-Oct-15 01:00N 54°28' E 011°41'912.1
2017-Oct-15 00:18N 54°26' E 011°55'312.0
2017-Oct-15 00:00N 54°26' E 012°01'611.4
2017-Oct-14 23:30N 54°27' E 012°11'612.1
2017-Oct-14 23:00N 54°32' E 012°15'5 9.3
2017-Oct-14 22:30N 54°36' E 012°18'5911.7
2017-Oct-14 17:31N 55°01' E 013°50'111.7
2017-Oct-14 17:28N 55°01' E 013°51'611.9
2017-Oct-14 16:59N 55°03' E 014°01'711.9
2017-Oct-14 16:23N 55°07' E 014°10'511.9
2017-Oct-14 15:58N 55°11' E 014°15'611.7
2017-Oct-14 15:29N 55°16' E 014°21'611.9
2017-Oct-14 15:00N 55°21' E 014°27'611.8
2017-Oct-14 14:30N 55°25' E 014°34'612.0
2017-Oct-14 13:59N 55°28' E 014°43'711.9
2017-Oct-14 13:22N 55°32' E 014°54'611.9
2017-Oct-14 12:53N 55°34' E 015°04'511.8
2017-Oct-14 12:30N 55°36' E 015°11'611.8
2017-Oct-14 12:00N 55°38' E 015°21'611.9
2017-Oct-14 11:30N 55°40' E 015°31'611.8
2017-Oct-14 11:00N 55°41' E 015°41'611.9
2017-Oct-14 10:30N 55°43' E 015°51'611.9
2017-Oct-14 10:00N 55°44' E 016°01'611.8
2017-Oct-14 09:29N 55°46' E 016°12'611.7
2017-Oct-14 09:01N 55°47' E 016°21'  
Track history (hours):
 
Tides and Currents Weather Stations Pressure Air Temp Water Temp Dewpoint Dewpoint Depression Visibility Wind Speed Wind Dir Waves Ship Positions

Strategic Vision

Last reported at 2017-Oct-19 05:53 UTC. Time now 2017-Nov-19 06:34 UTC.
Position N 48°09' W 006°27'.
Warning: this ship's position is 31 days out of date.

Length 186 m; draft 10.5 m.

Type: Cargo ship. MMSI: 565671000.

Date/timePositionNaut miles runAvg speedWind from/ knotsBaromVisibWave heightAir tempDewpointWater temp
2017-Oct-19 05:53N 48°09' W 006°27'10510.4
2017-Oct-18 19:46N 49°23' W 004°34'312.9
2017-Oct-18 19:31N 49°25' W 004°30'612.6
2017-Oct-18 19:00N 49°28' W 004°21'712.2
2017-Oct-18 18:23N 49°32' W 004°11'511.8
2017-Oct-18 18:00N 49°35' W 004°06'711.4
2017-Oct-18 17:25N 49°39' W 003°58'510.7
2017-Oct-18 16:58N 49°41' W 003°51'510.8
2017-Oct-18 16:31N 49°43' W 003°44'611.3
2017-Oct-18 16:00N 49°45' W 003°36'611.5
2017-Oct-18 15:31N 49°48' W 003°28'612.0
2017-Oct-18 15:01N 49°51' W 003°20'1313.0
2017-Oct-18 14:01N 49°56' W 003°02'814.3
2017-Oct-18 13:25N 49°59' W 002°49'714.9
2017-Oct-18 12:59N 50°01' W 002°40'7812.5
2017-Oct-18 06:43N 50°22' W 000°42'810.4
2017-Oct-18 05:55N 50°24' W 000°30'511.4
2017-Oct-18 05:30N 50°26' W 000°23'612.1
2017-Oct-18 05:00N 50°28' W 000°13'612.9
2017-Oct-18 04:31N 50°29' W 000°04'713.5
2017-Oct-18 04:00N 50°31' E 000°06'714.0
2017-Oct-18 03:30N 50°33' E 000°17'714.3
2017-Oct-18 03:00N 50°35' E 000°28'713.9
2017-Oct-18 02:30N 50°37' E 000°38'713.8
2017-Oct-18 02:00N 50°41' E 000°47'713.4
2017-Oct-18 01:30N 50°45' E 000°55'612.7
2017-Oct-18 01:00N 50°49' E 001°03'712.2
2017-Oct-18 00:27N 50°54' E 001°11'511.4
2017-Oct-18 00:00N 50°58' E 001°16'510.5
2017-Oct-17 23:30N 51°01' E 001°22'510.1
2017-Oct-17 23:00N 51°04' E 001°29'5 9.5
2017-Oct-17 22:30N 51°07' E 001°35'5 9.9
2017-Oct-17 22:00N 51°10' E 001°41'510.6
2017-Oct-17 21:30N 51°14' E 001°47'612.0
2017-Oct-17 21:00N 51°20' E 001°50'612.8
2017-Oct-17 20:30N 51°26' E 001°55'713.9
2017-Oct-17 20:00N 51°31' E 002°02'714.3
2017-Oct-17 19:30N 51°36' E 002°09'714.6
2017-Oct-17 19:00N 51°42' E 002°17'1414.3
2017-Oct-17 18:00N 51°53' E 002°31'1413.3
2017-Oct-17 16:56N 52°07' E 002°36'612.3
2017-Oct-17 16:28N 52°13' E 002°39'711.9
2017-Oct-17 15:55N 52°19' E 002°44'42910.4
2017-Oct-15 22:45N 57°55' E 010°29'311.6
2017-Oct-15 22:30N 57°53' E 010°33'611.7
2017-Oct-15 21:59N 57°50' E 010°42'611.8
2017-Oct-15 21:28N 57°46' E 010°51'510.7
2017-Oct-15 21:00N 57°42' E 010°58'612.1
2017-Oct-15 20:30N 57°38' E 011°06'612.7
2017-Oct-15 20:00N 57°34' E 011°15'612.9
2017-Oct-15 19:30N 57°30' E 011°24'612.6
2017-Oct-15 19:00N 57°24' E 011°29'612.8
2017-Oct-15 18:30N 57°18' E 011°32'712.5
2017-Oct-15 17:58N 57°12' E 011°36'612.8
2017-Oct-15 17:28N 57°06' E 011°41'612.5
2017-Oct-15 17:00N 57°00' E 011°44'612.3
2017-Oct-15 16:30N 56°55' E 011°49'10511.1
2017-Oct-15 07:06N 55°13' E 011°06'1 8.2
2017-Oct-15 07:00N 55°12' E 011°06'510.1
2017-Oct-15 06:31N 55°09' E 010°60'611.8
2017-Oct-15 06:01N 55°03' E 010°60'611.2
2017-Oct-15 05:30N 54°58' E 010°56'611.7
2017-Oct-15 05:00N 54°53' E 010°50'611.7
2017-Oct-15 04:30N 54°47' E 010°49'611.1
2017-Oct-15 04:00N 54°42' E 010°47'510.9
2017-Oct-15 03:31N 54°38' E 010°54'611.6
2017-Oct-15 03:00N 54°36' E 011°04'510.9
2017-Oct-15 02:30N 54°35' E 011°13'611.6
2017-Oct-15 02:01N 54°33' E 011°22'611.8
2017-Oct-15 01:30N 54°30' E 011°31'612.1
2017-Oct-15 01:00N 54°28' E 011°41'912.1
2017-Oct-15 00:18N 54°26' E 011°55'312.0
2017-Oct-15 00:00N 54°26' E 012°01'611.4
2017-Oct-14 23:30N 54°27' E 012°11'612.1
2017-Oct-14 23:00N 54°32' E 012°15'5 9.3
2017-Oct-14 22:30N 54°36' E 012°18'5911.7
2017-Oct-14 17:31N 55°01' E 013°50'111.7
2017-Oct-14 17:28N 55°01' E 013°51'611.9
2017-Oct-14 16:59N 55°03' E 014°01'711.9
2017-Oct-14 16:23N 55°07' E 014°10'511.9
2017-Oct-14 15:58N 55°11' E 014°15'611.7
2017-Oct-14 15:29N 55°16' E 014°21'611.9
2017-Oct-14 15:00N 55°21' E 014°27'611.8
2017-Oct-14 14:30N 55°25' E 014°34'612.0
2017-Oct-14 13:59N 55°28' E 014°43'711.9
2017-Oct-14 13:22N 55°32' E 014°54'611.9
2017-Oct-14 12:53N 55°34' E 015°04'511.8
2017-Oct-14 12:30N 55°36' E 015°11'611.8
2017-Oct-14 12:00N 55°38' E 015°21'611.9
2017-Oct-14 11:30N 55°40' E 015°31'611.8
2017-Oct-14 11:00N 55°41' E 015°41'611.9
2017-Oct-14 10:30N 55°43' E 015°51'611.9
2017-Oct-14 10:00N 55°44' E 016°01'611.8
2017-Oct-14 09:29N 55°46' E 016°12'611.7
2017-Oct-14 09:01N 55°47' E 016°21'  

Dump ship's entire track history